Time;durP1;ratioP1;P1;durP2;ratioP2;P2;SDS_P1;SDS_P2;PMS_P1;PMS_P2;Temp;Humidity;BMP_temperature;BMP_pressure;BME280_temperature;BME280_humidity;BME280_pressure;Samples;Min_cycle;Max_cycle;Signal;HPM_P1;HPM_P2
2024/01/16 00:01:17;;;;;;;32.60;31.05;;;;;;;3.85;66.33;100886.78;5039967;28;20105;-77
2024/01/16 00:03:44;;;;;;;36.08;34.38;;;;;;;3.85;66.33;100894.81;5037821;28;20137;-77
2024/01/16 00:06:09;;;;;;;37.35;35.55;;;;;;;3.84;66.30;100898.50;5041205;28;20489;-77
2024/01/16 00:08:35;;;;;;;39.45;37.42;;;;;;;3.85;66.29;100891.31;5041426;28;20033;-77
2024/01/16 00:11:02;;;;;;;38.67;36.80;;;;;;;3.85;66.37;100904.66;5031327;28;20048;-78
2024/01/16 00:13:28;;;;;;;34.78;32.95;;;;;;;3.84;66.46;100895.84;5021945;28;20512;-79
2024/01/16 00:15:53;;;;;;;35.33;33.63;;;;;;;3.85;66.20;100907.34;5029299;28;22100;-77
2024/01/16 00:18:18;;;;;;;35.42;33.70;;;;;;;3.83;66.56;100907.56;5032638;28;20038;-79
2024/01/16 00:20:44;;;;;;;34.70;33.10;;;;;;;3.83;66.25;100906.69;5029484;28;20185;-77
2024/01/16 00:23:10;;;;;;;39.72;37.80;;;;;;;3.82;66.31;100913.06;5033871;28;20038;-77
2024/01/16 00:25:35;;;;;;;37.22;35.22;;;;;;;3.81;66.36;100914.94;5036276;28;20474;-78
2024/01/16 00:28:01;;;;;;;36.65;34.90;;;;;;;3.82;66.28;100911.22;5020368;28;20156;-78
2024/01/16 00:30:27;;;;;;;32.67;31.08;;;;;;;3.83;66.44;100918.25;5028565;28;20041;-78
2024/01/16 00:32:52;;;;;;;35.63;33.88;;;;;;;3.82;66.22;100908.56;5011096;28;20029;-79
2024/01/16 00:35:17;;;;;;;30.92;29.42;;;;;;;3.82;66.29;100907.72;5021202;28;20044;-78
2024/01/16 00:37:43;;;;;;;36.80;34.90;;;;;;;3.83;66.39;100907.56;5021819;28;20041;-78
2024/01/16 00:40:08;;;;;;;36.75;34.97;;;;;;;3.83;66.26;100902.22;5014631;28;20478;-78
2024/01/16 00:42:34;;;;;;;36.00;34.15;;;;;;;3.83;66.31;100904.03;5014388;28;20049;-78
2024/01/16 00:45:01;;;;;;;33.50;31.90;;;;;;;3.82;66.42;100913.06;5016378;28;20099;-78
2024/01/16 00:47:26;;;;;;;34.15;32.55;;;;;;;3.81;66.24;100914.09;5021673;28;20036;-78
2024/01/16 00:49:52;;;;;;;34.28;32.67;;;;;;;3.80;66.07;100923.94;5029150;28;20109;-77
2024/01/16 00:52:19;;;;;;;35.28;33.58;;;;;;;3.78;66.31;100928.69;5045011;28;20024;-78
2024/01/16 00:54:44;;;;;;;38.35;36.35;;;;;;;3.79;66.45;100918.81;5026293;28;20034;-77
2024/01/16 00:57:10;;;;;;;34.10;32.50;;;;;;;3.79;66.16;100916.97;5032186;28;20039;-78
2024/01/16 00:59:36;;;;;;;41.00;38.88;;;;;;;3.79;66.63;100930.31;5041015;28;20040;-78
2024/01/16 01:02:03;;;;;;;37.38;35.50;;;;;;;3.79;66.59;100921.50;5037476;28;20037;-79
2024/01/16 01:04:29;;;;;;;33.05;31.48;;;;;;;3.80;66.45;100933.81;5038212;28;20104;-79
2024/01/16 01:06:54;;;;;;;38.67;36.80;;;;;;;3.79;66.43;100929.50;5017354;28;20112;-78
2024/01/16 01:09:20;;;;;;;34.78;33.10;;;;;;;3.78;66.41;100920.66;5034847;28;20382;-79
2024/01/16 01:11:45;;;;;;;35.63;33.80;;;;;;;3.78;66.41;100918.00;5033340;28;20033;-78
2024/01/16 01:14:10;;;;;;;33.28;31.67;;;;;;;3.76;66.45;100927.22;5049300;28;20045;-78
2024/01/16 01:16:36;;;;;;;35.05;33.25;;;;;;;3.76;66.73;100916.53;5029787;28;20462;-79
2024/01/16 01:19:03;;;;;;;35.45;33.78;;;;;;;3.76;66.43;100914.69;5045830;28;20087;-79
2024/01/16 01:21:28;;;;;;;35.95;34.20;;;;;;;3.76;66.48;100908.53;5033912;28;20069;-79
2024/01/16 01:23:53;;;;;;;36.38;34.67;;;;;;;3.78;66.43;100906.47;5017177;28;20116;-78
2024/01/16 01:26:19;;;;;;;34.60;32.90;;;;;;;3.77;66.72;100907.50;5030423;28;20039;-78
2024/01/16 01:28:44;;;;;;;40.47;38.47;;;;;;;3.76;66.51;100908.53;5033587;28;20041;-79
2024/01/16 01:31:13;;;;;;;34.17;32.53;;;;;;;3.78;66.45;100914.47;5033807;28;20542;-78
2024/01/16 01:33:39;;;;;;;36.95;35.05;;;;;;;3.76;66.61;100905.84;5019666;28;20045;-79
2024/01/16 01:36:05;;;;;;;39.67;37.78;;;;;;;3.79;66.56;100913.47;5038679;28;20535;-78
2024/01/16 01:38:31;;;;;;;34.97;33.28;;;;;;;3.77;66.43;100912.84;5048884;28;20025;-79
2024/01/16 01:40:56;;;;;;;35.65;33.88;;;;;;;3.78;66.24;100925.16;5035018;28;20414;-80
2024/01/16 01:43:24;;;;;;;35.75;33.95;;;;;;;3.78;66.37;100931.34;5017048;28;20114;-79
2024/01/16 01:46:18;;;;;;;38.40;36.40;;;;;;;3.79;66.36;100932.19;5027654;28;20053;-78
2024/01/16 01:48:47;;;;;;;38.33;36.33;;;;;;;3.78;66.71;100927.84;5017381;28;20033;-78
2024/01/16 01:51:17;;;;;;;33.65;32.03;;;;;;;3.79;66.59;100932.19;5029101;28;20068;-78
2024/01/16 01:53:44;;;;;;;36.00;34.13;;;;;;;3.80;66.44;100933.81;5022695;28;20061;-78
2024/01/16 01:56:18;;;;;;;35.55;33.85;;;;;;;3.80;66.42;100937.31;5021315;28;20026;-78
2024/01/16 01:58:46;;;;;;;35.60;33.80;;;;;;;3.81;66.63;100938.97;5022490;28;20034;-78
2024/01/16 02:01:13;;;;;;;34.63;32.95;;;;;;;3.82;66.51;100932.59;5033360;28;20026;-78
2024/01/16 02:03:44;;;;;;;37.03;35.25;;;;;;;3.81;66.30;100930.16;5017103;28;20033;-79
2024/01/16 02:06:13;;;;;;;30.83;29.38;;;;;;;3.83;66.50;100930.75;5049074;28;20036;-78
2024/01/16 02:08:42;;;;;;;;;;;;;;;3.83;66.66;100926.25;5016216;28;20025;-78
2024/01/16 02:11:08;;;;;;;36.47;34.70;;;;;;;3.83;66.50;100936.09;5038903;28;19947;-78
2024/01/16 02:13:33;;;;;;;38.40;36.50;;;;;;;3.82;66.62;100945.97;5046131;28;20481;-80
2024/01/16 02:15:59;;;;;;;35.70;34.00;;;;;;;3.80;66.51;100936.50;5035789;28;20068;-80
2024/01/16 02:18:24;;;;;;;34.92;33.17;;;;;;;3.78;66.44;100935.84;5033139;28;20167;-80
2024/01/16 02:20:50;;;;;;;39.42;37.42;;;;;;;3.75;66.29;100925.56;5035303;28;20021;-78
2024/01/16 02:23:36;;;;;;;36.05;34.35;;;;;;;3.75;66.50;100920.22;5050557;28;20111;-79
2024/01/16 02:26:03;;;;;;;32.90;31.35;;;;;;;3.75;66.33;100917.53;5018777;28;20041;-80
2024/01/16 02:28:29;;;;;;;34.28;32.67;;;;;;;3.74;66.23;100910.56;5032142;28;20029;-78
2024/01/16 02:30:54;;;;;;;34.17;32.28;;;;;;;3.76;66.42;100920.03;5025155;28;20041;-79
2024/01/16 02:33:19;;;;;;;30.48;28.88;;;;;;;3.76;66.74;100919.22;5037146;28;20037;-78
2024/01/16 02:35:45;;;;;;;36.40;34.55;;;;;;;3.78;66.68;100923.34;5039599;28;20029;-78
2024/01/16 02:38:10;;;;;;;29.77;28.38;;;;;;;3.78;66.32;100918.00;5027452;28;20029;-78
2024/01/16 02:40:35;;;;;;;31.65;30.15;;;;;;;3.79;66.71;100910.81;5030403;28;20046;-79
2024/01/16 02:43:01;;;;;;;38.05;36.15;;;;;;;3.80;66.52;100915.94;5012507;28;20037;-80
2024/01/16 02:45:26;;;;;;;38.08;36.28;;;;;;;3.80;66.44;100915.94;5014974;28;20412;-79
2024/01/16 02:47:52;;;;;;;39.25;37.22;;;;;;;3.80;66.79;100913.25;5032016;28;20036;-79
2024/01/16 02:50:17;;;;;;;32.67;31.15;;;;;;;3.83;66.46;100910.22;5037982;28;20056;-78
2024/01/16 02:52:43;;;;;;;35.22;33.55;;;;;;;3.83;66.70;100914.72;5031954;28;20026;-79
2024/01/16 02:55:08;;;;;;;35.53;33.83;;;;;;;3.84;66.84;100911.03;5014847;28;20470;-78
2024/01/16 02:57:34;;;;;;;36.17;34.47;;;;;;;3.84;66.47;100914.53;5031075;28;20026;-78
2024/01/16 02:59:59;;;;;;;36.95;35.05;;;;;;;3.85;66.61;100916.19;5029743;28;20037;-79
2024/01/16 03:02:25;;;;;;;38.58;36.75;;;;;;;3.84;66.20;100911.88;5014768;28;20470;-79
2024/01/16 03:04:50;;;;;;;32.97;31.27;;;;;;;3.85;66.42;100918.84;5031470;28;20047;-79
2024/01/16 03:07:16;;;;;;;33.22;31.63;;;;;;;3.86;66.68;100920.50;5031992;28;20037;-79
2024/01/16 03:09:41;;;;;;;36.95;35.20;;;;;;;3.85;66.42;100918.84;5034077;28;20037;-79
2024/01/16 03:12:07;;;;;;;33.38;31.80;;;;;;;3.86;66.48;100911.69;5026725;28;20048;-79
2024/01/16 03:14:34;;;;;;;38.05;36.25;;;;;;;3.85;66.43;100913.50;5015565;28;20041;-78
2024/01/16 03:17:03;;;;;;;36.28;34.38;;;;;;;3.86;66.53;100915.19;5045749;28;20033;-79
2024/01/16 03:19:28;;;;;;;33.33;31.67;;;;;;;3.87;66.66;100908.78;5033199;28;20037;-79
2024/01/16 03:21:54;;;;;;;38.03;36.05;;;;;;;3.88;66.29;100918.47;5027651;28;20442;-78
2024/01/16 03:24:20;;;;;;;37.55;35.67;;;;;;;3.86;66.45;100912.50;5005818;28;20036;-79
2024/01/16 03:26:45;;;;;;;39.88;38.03;;;;;;;3.87;66.51;100913.31;5036333;28;20082;-78
2024/01/16 03:29:11;;;;;;;36.50;34.70;;;;;;;3.87;66.50;100918.66;5045630;28;20523;-78
2024/01/16 03:31:36;;;;;;;34.60;32.78;;;;;;;3.87;66.17;100918.66;5018985;28;20033;-78
2024/01/16 03:34:01;;;;;;;36.47;34.58;;;;;;;3.87;66.37;100914.13;5017665;28;20037;-79
2024/01/16 03:36:27;;;;;;;37.17;35.38;;;;;;;3.87;66.43;100910.66;5032609;28;20466;-79
2024/01/16 03:38:52;;;;;;;38.22;36.33;;;;;;;3.86;66.71;100899.13;5029028;28;20112;-78
2024/01/16 03:41:18;;;;;;;37.95;36.05;;;;;;;3.86;66.34;100904.47;5034100;28;20037;-79
2024/01/16 03:43:44;;;;;;;37.58;35.72;;;;;;;3.86;66.38;100909.81;5046954;28;20425;-79
2024/01/16 03:46:12;;;;;;;36.80;34.83;;;;;;;3.85;66.55;100907.34;5026698;28;20037;-80
2024/01/16 03:48:38;;;;;;;30.67;29.17;;;;;;;3.85;66.18;100897.47;5011065;28;20489;-79
2024/01/16 03:51:03;;;;;;;37.38;35.38;;;;;;;3.84;66.26;100887.81;5023738;28;20050;-79
2024/01/16 03:53:29;;;;;;;35.28;33.58;;;;;;;3.83;66.55;100896.88;5030816;28;20061;-81
2024/01/16 03:55:54;;;;;;;34.72;33.00;;;;;;;3.85;66.20;100893.97;5002235;28;20069;-79
2024/01/16 03:58:20;;;;;;;36.05;34.25;;;;;;;3.84;66.30;100889.66;5022442;28;20042;-79
2024/01/16 04:00:45;;;;;;;36.95;35.10;;;;;;;3.83;66.21;100883.50;5033440;28;20137;-79
2024/01/16 04:03:11;;;;;;;39.13;37.03;;;;;;;3.82;66.40;100887.19;5031263;28;20033;-80
2024/01/16 04:05:37;;;;;;;36.03;34.33;;;;;;;3.82;66.42;100886.34;5028401;28;20096;-79
2024/01/16 04:08:02;;;;;;;39.55;37.45;;;;;;;3.81;66.32;100880.19;5027188;28;20482;-78
2024/01/16 04:10:28;;;;;;;35.88;34.17;;;;;;;3.81;66.37;100877.53;5037914;28;20041;-79
2024/01/16 04:12:53;;;;;;;35.03;33.28;;;;;;;3.82;66.07;100879.16;5046642;28;20108;-79
2024/01/16 04:15:18;;;;;;;32.00;30.45;;;;;;;3.82;66.39;100873.81;5041485;28;20055;-78
2024/01/16 04:17:44;;;;;;;35.20;33.17;;;;;;;3.82;66.20;100879.16;5032847;28;20041;-80
2024/01/16 04:20:10;;;;;;;40.17;38.10;;;;;;;3.82;66.36;100879.16;5029384;28;20044;-79
2024/01/16 04:22:36;;;;;;;33.60;32.00;;;;;;;3.81;66.34;100879.38;5016284;28;20064;-79
2024/01/16 04:25:01;;;;;;;35.83;33.90;;;;;;;3.80;66.29;100864.34;5045942;28;20064;-80
2024/01/16 04:27:27;;;;;;;34.22;32.60;;;;;;;3.80;66.03;100869.69;5044440;28;20533;-79
2024/01/16 04:29:53;;;;;;;37.38;34.13;;;;;;;3.80;66.26;100877.72;5027314;28;20107;-79
2024/01/16 04:32:18;;;;;;;39.85;37.85;;;;;;;3.80;66.09;100869.69;5045778;28;20038;-79
2024/01/16 04:34:44;;;;;;;37.50;35.72;;;;;;;3.81;66.16;100868.69;5013328;28;20120;-78
2024/01/16 04:37:09;;;;;;;34.90;32.97;;;;;;;3.78;65.90;100867.22;5040172;28;20030;-78
2024/01/16 04:39:34;;;;;;;34.53;32.83;;;;;;;3.79;66.35;100868.88;5017295;28;20160;-80
2024/01/16 04:42:00;;;;;;;38.97;37.08;;;;;;;3.77;65.92;100864.75;5043250;28;20025;-78
2024/01/16 04:44:25;;;;;;;32.00;30.48;;;;;;;3.76;66.13;100861.25;5019791;28;20085;-82
2024/01/16 04:46:50;;;;;;;32.75;31.15;;;;;;;3.76;66.05;100860.44;5032688;28;20496;-79
2024/01/16 04:49:16;;;;;;;35.38;33.53;;;;;;;3.77;66.17;100872.75;5012814;28;20045;-80
2024/01/16 04:51:41;;;;;;;36.42;34.72;;;;;;;3.76;66.07;100869.25;5007669;28;20038;-79
2024/01/16 04:54:07;;;;;;;35.50;33.60;;;;;;;3.75;66.36;100866.78;5021341;28;20030;-79
2024/01/16 04:56:32;;;;;;;36.75;34.53;;;;;;;3.76;66.38;100868.44;5039409;28;20039;-79
2024/01/16 04:58:58;;;;;;;35.22;33.53;;;;;;;3.76;66.04;100871.13;5026142;28;20525;-79
2024/01/16 05:01:24;;;;;;;33.30;31.70;;;;;;;3.75;66.14;100872.13;5018090;28;20037;-78
2024/01/16 05:03:50;;;;;;;34.42;32.72;;;;;;;3.74;65.93;100863.28;5017616;28;20030;-78
2024/01/16 05:06:15;;;;;;;39.17;37.08;;;;;;;3.75;66.18;100870.28;5029970;28;20036;-79
2024/01/16 05:08:44;;;;;;;34.38;32.67;;;;;;;3.74;66.31;100862.47;5046776;28;20041;-78
2024/01/16 05:11:09;;;;;;;37.63;35.70;;;;;;;3.74;66.16;100863.28;5033108;28;20038;-78
2024/01/16 05:13:35;;;;;;;39.25;36.67;;;;;;;3.74;66.19;100859.78;5032877;28;20087;-80
2024/01/16 05:16:00;;;;;;;36.03;34.30;;;;;;;3.72;66.31;100857.31;5032918;28;21330;-78
2024/01/16 05:18:26;;;;;;;35.78;34.08;;;;;;;3.73;65.97;100853.63;5022895;28;20489;-79
2024/01/16 05:20:51;;;;;;;31.48;29.90;;;;;;;3.73;66.08;100847.44;5013543;28;20508;-78
2024/01/16 05:23:17;;;;;;;38.95;36.80;;;;;;;3.73;66.16;100834.09;5030087;28;20037;-78
2024/01/16 05:25:43;;;;;;;34.22;32.63;;;;;;;3.72;65.97;100840.47;5032725;28;20139;-78
2024/01/16 05:28:08;;;;;;;39.00;36.90;;;;;;;3.72;65.82;100833.25;5031891;28;20034;-78
2024/01/16 05:30:34;;;;;;;36.95;35.13;;;;;;;3.72;66.01;100840.47;4996600;28;20041;-78
2024/01/16 05:33:00;;;;;;;34.88;33.17;;;;;;;3.71;66.17;100839.63;5013292;28;20034;-78
2024/01/16 05:35:27;;;;;;;34.90;33.22;;;;;;;3.71;66.35;100844.16;5022129;28;20048;-78
2024/01/16 05:37:53;;;;;;;34.72;33.08;;;;;;;3.72;66.22;100843.13;5032463;28;20057;-77
2024/01/16 05:40:18;;;;;;;35.30;33.47;;;;;;;3.70;66.15;100843.31;5017153;28;20068;-77
2024/01/16 05:42:44;;;;;;;35.35;33.60;;;;;;;3.70;66.28;100835.28;5031775;28;20029;-77
2024/01/16 05:45:09;;;;;;;35.67;33.67;;;;;;;3.71;66.27;100833.47;5017395;28;20136;-78
2024/01/16 05:47:35;;;;;;;36.42;34.63;;;;;;;3.69;65.75;100833.66;5019201;28;20037;-78
2024/01/16 05:50:00;;;;;;;37.03;35.22;;;;;;;3.68;66.07;100835.50;5032579;28;20040;-77
2024/01/16 05:52:26;;;;;;;34.13;32.47;;;;;;;3.67;66.19;100833.03;5028409;28;20038;-78
2024/01/16 05:54:51;;;;;;;33.58;31.83;;;;;;;3.67;66.00;100830.34;5032053;28;20029;-80
2024/01/16 05:57:16;;;;;;;34.65;32.85;;;;;;;3.67;65.75;100823.16;5001522;28;20167;-77
2024/01/16 05:59:42;;;;;;;38.63;36.83;;;;;;;3.65;65.70;100825.22;5034607;28;20421;-78
2024/01/16 06:02:07;;;;;;;36.33;34.55;;;;;;;3.65;65.79;100829.72;5027841;28;20068;-78
2024/01/16 06:04:33;;;;;;;31.58;30.08;;;;;;;3.63;66.16;100821.91;5020945;28;20042;-75
2024/01/16 06:06:58;;;;;;;34.10;32.40;;;;;;;3.64;65.66;100822.72;5039939;28;20367;-77
2024/01/16 06:09:23;;;;;;;37.47;35.47;;;;;;;3.62;65.92;100824.78;5031509;28;20034;-79
2024/01/16 06:11:49;;;;;;;36.05;34.35;;;;;;;3.62;65.92;100822.91;5029037;28;20060;-77
2024/01/16 06:14:21;;;;;;;37.90;35.67;;;;;;;3.62;65.66;100819.44;4996565;28;20045;-80
2024/01/16 06:16:47;;;;;;;33.85;32.05;;;;;;;3.60;66.04;100822.31;5020970;28;20026;-81
2024/01/16 06:19:12;;;;;;;36.42;34.65;;;;;;;3.60;65.75;100827.66;5033893;28;20116;-78
2024/01/16 06:21:39;;;;;;;31.60;30.08;;;;;;;3.60;65.96;100818.78;5031261;28;20410;-78
2024/01/16 06:24:05;;;;;;;36.20;34.47;;;;;;;3.59;65.92;100822.50;5016882;28;20037;-79
2024/01/16 06:26:31;;;;;;;35.83;34.15;;;;;;;3.58;66.08;100811.00;5034607;28;20028;-78
2024/01/16 06:28:57;;;;;;;36.60;34.88;;;;;;;3.58;65.62;100823.50;5032643;28;20059;-78
2024/01/16 06:31:23;;;;;;;39.08;36.97;;;;;;;3.55;65.73;100819.38;5050273;28;20469;-79
2024/01/16 06:33:49;;;;;;;36.17;34.38;;;;;;;3.54;66.01;100817.72;5036992;28;20536;-80
2024/01/16 06:36:14;;;;;;;37.67;35.80;;;;;;;3.55;66.15;100823.88;5037106;28;20037;-82
2024/01/16 06:38:40;;;;;;;35.63;33.90;;;;;;;3.53;65.62;100815.25;5028086;28;20029;-82
2024/01/16 06:41:06;;;;;;;34.92;33.22;;;;;;;3.52;65.94;100821.63;5030981;28;20467;-81
2024/01/16 06:43:31;;;;;;;34.85;33.20;;;;;;;3.51;66.06;100823.47;5035164;28;20267;-81
2024/01/16 06:45:57;;;;;;;33.80;32.05;;;;;;;3.52;66.06;100826.97;5031438;28;20043;-80
2024/01/16 06:48:22;;;;;;;33.97;32.08;;;;;;;3.52;65.93;100824.28;5029496;28;20033;-79
2024/01/16 06:50:47;;;;;;;33.88;32.22;;;;;;;3.50;65.61;100840.50;5032356;28;20478;-83
2024/01/16 06:53:13;;;;;;;33.40;31.50;;;;;;;3.49;65.75;100836.19;5023299;28;20058;-81
2024/01/16 06:55:38;;;;;;;37.75;35.95;;;;;;;3.50;66.06;100831.66;4995437;28;20030;-78
2024/01/16 06:58:04;;;;;;;33.35;31.42;;;;;;;3.51;65.49;100834.16;5028621;28;20418;-71
2024/01/16 07:00:29;;;;;;;32.15;30.42;;;;;;;3.45;64.87;100825.06;5030599;28;20067;-75
2024/01/16 07:02:55;;;;;;;34.60;32.90;;;;;;;3.42;65.17;100825.44;5038196;28;20128;-75
2024/01/16 07:05:21;;;;;;;32.45;30.70;;;;;;;3.39;65.02;100827.69;5017051;28;20531;-75
2024/01/16 07:07:47;;;;;;;33.95;32.28;;;;;;;3.37;65.25;100835.06;5026754;28;20025;-76
2024/01/16 07:10:18;;;;;;;33.97;32.33;;;;;;;3.36;65.09;100836.91;5020793;28;20492;-75
2024/01/16 07:12:47;;;;;;;35.42;33.72;;;;;;;3.35;65.10;100837.94;5040174;28;20036;-77
2024/01/16 07:15:13;;;;;;;35.58;33.72;;;;;;;3.35;65.15;100842.44;5039672;28;20099;-75
2024/01/16 07:17:39;;;;;;;34.38;32.63;;;;;;;3.35;65.56;100845.94;5028648;28;20033;-74
2024/01/16 07:20:05;;;;;;;35.67;33.88;;;;;;;3.34;65.18;100840.78;5023358;28;20293;-75
2024/01/16 07:22:30;;;;;;;30.23;28.63;;;;;;;3.33;65.28;100847.16;5046623;28;20037;-75
2024/01/16 07:24:56;;;;;;;31.75;30.20;;;;;;;3.33;65.45;100850.66;5033976;28;20068;-74
2024/01/16 07:27:21;;;;;;;37.25;35.38;;;;;;;3.33;65.45;100852.50;5037973;28;20084;-74
2024/01/16 07:29:46;;;;;;;35.90;34.15;;;;;;;3.34;65.72;100844.28;5031401;28;20079;-75
2024/01/16 07:32:12;;;;;;;35.33;33.50;;;;;;;3.35;65.52;100835.25;5019594;28;20037;-75
2024/01/16 07:34:37;;;;;;;33.63;31.90;;;;;;;3.33;65.50;100842.63;5014941;28;20117;-75
2024/01/16 07:37:03;;;;;;;32.47;30.88;;;;;;;3.32;65.32;100843.63;5035566;28;20065;-74
2024/01/16 07:39:28;;;;;;;36.33;34.42;;;;;;;3.32;65.46;100850.81;5031227;28;20033;-75
2024/01/16 07:41:54;;;;;;;30.50;28.90;;;;;;;3.31;65.38;100854.53;5028694;28;20034;-74
2024/01/16 07:44:19;;;;;;;32.67;31.05;;;;;;;3.31;65.51;100859.88;5033555;28;20477;-80
2024/01/16 07:46:45;;;;;;;33.50;31.80;;;;;;;3.29;65.37;100851.22;5041958;28;20052;-75
2024/01/16 07:49:10;;;;;;;33.63;32.03;;;;;;;3.28;65.61;100858.41;5030317;28;20030;-78
2024/01/16 07:51:35;;;;;;;35.13;33.17;;;;;;;3.28;65.45;100862.94;5045443;28;20120;-75
2024/01/16 07:54:06;;;;;;;28.90;27.42;;;;;;;3.27;65.58;100867.41;5044916;28;20037;-74
2024/01/16 07:56:32;;;;;;;34.83;32.95;;;;;;;3.27;65.59;100863.94;5036158;28;20045;-76
2024/01/16 07:58:57;;;;;;;34.20;32.47;;;;;;;3.26;65.37;100873.78;5021783;28;20029;-76
2024/01/16 08:01:23;;;;;;;40.05;37.90;;;;;;;3.27;65.37;100866.59;5011012;28;20132;-75
2024/01/16 08:03:48;;;;;;;33.10;31.48;;;;;;;3.27;65.37;100867.41;5026939;28;20041;-75
2024/01/16 08:06:13;;;;;;;33.22;31.52;;;;;;;3.27;65.62;100858.59;5038969;28;20456;-74
2024/01/16 08:08:39;;;;;;;33.80;32.00;;;;;;;3.27;65.39;100872.75;5032690;28;20034;-75
2024/01/16 08:11:04;;;;;;;33.53;31.90;;;;;;;3.28;65.61;100870.94;5029461;28;20051;-75
2024/01/16 08:13:30;;;;;;;39.08;36.90;;;;;;;3.28;65.68;100877.09;5019623;28;20117;-75
2024/01/16 08:15:55;;;;;;;31.55;29.95;;;;;;;3.29;65.46;100869.91;5020816;28;20045;-76
2024/01/16 08:18:20;;;;;;;36.70;34.75;;;;;;;3.29;65.45;100878.72;5002627;28;20041;-75
2024/01/16 08:20:46;;;;;;;30.08;28.58;;;;;;;3.29;65.51;100878.72;5012929;28;20033;-75
2024/01/16 08:23:12;;;;;;;34.90;32.90;;;;;;;3.29;65.61;100880.59;5028061;28;20029;-78
2024/01/16 08:25:38;;;;;;;36.17;34.30;;;;;;;3.28;65.51;100882.44;5028408;28;20041;-75
2024/01/16 08:28:04;;;;;;;30.10;28.60;;;;;;;3.27;65.52;100880.75;5013124;28;20038;-77
2024/01/16 08:30:29;;;;;;;34.33;32.53;;;;;;;3.28;65.63;100881.63;5022993;28;20034;-75
2024/01/16 08:32:55;;;;;;;32.70;31.00;;;;;;;3.27;65.31;100878.09;5020372;28;20037;-76
2024/01/16 08:35:20;;;;;;;31.27;29.67;;;;;;;3.30;65.41;100879.56;5029056;28;20041;-75
2024/01/16 08:37:45;;;;;;;34.15;32.50;;;;;;;3.30;65.57;100879.56;5028464;28;20085;-75
2024/01/16 08:40:11;;;;;;;32.58;30.85;;;;;;;3.29;65.66;100876.06;5020828;28;20543;-75
2024/01/16 08:42:37;;;;;;;32.58;30.83;;;;;;;3.28;65.59;100877.09;5022497;28;20109;-74
2024/01/16 08:45:03;;;;;;;31.40;29.85;;;;;;;3.28;65.44;100881.63;5036030;28;20049;-75
2024/01/16 08:47:28;;;;;;;32.40;30.80;;;;;;;3.28;65.71;100884.28;5022642;28;20040;-77
2024/01/16 08:49:54;;;;;;;37.03;35.10;;;;;;;3.27;65.33;100886.09;5011358;28;20026;-77
2024/01/16 08:52:19;;;;;;;36.35;34.45;;;;;;;3.28;65.36;100886.94;5031245;28;20378;-79
2024/01/16 08:54:44;;;;;;;33.22;31.52;;;;;;;3.27;65.72;100877.28;5034817;28;20089;-75
2024/01/16 08:57:10;;;;;;;34.08;32.17;;;;;;;3.27;65.76;100879.94;5031189;28;20095;-74
2024/01/16 08:59:36;;;;;;;33.45;31.70;;;;;;;3.28;65.90;100879.75;5036625;28;20492;-74
2024/01/16 09:02:01;;;;;;;34.55;32.85;;;;;;;3.28;65.36;100876.28;5013435;28;20044;-77
2024/01/16 09:04:26;;;;;;;34.15;32.45;;;;;;;3.28;65.47;100879.75;5012432;28;20044;-75
2024/01/16 09:06:52;;;;;;;32.67;30.95;;;;;;;3.29;65.64;100883.25;5029103;28;20034;-75
2024/01/16 09:09:17;;;;;;;31.85;30.17;;;;;;;3.28;65.60;100876.28;5012568;28;20073;-76
2024/01/16 09:11:43;;;;;;;35.28;33.28;;;;;;;3.28;65.74;100871.75;5032703;28;20470;-76
2024/01/16 09:14:08;;;;;;;32.83;31.17;;;;;;;3.29;65.67;100868.06;5024186;28;20064;-75
2024/01/16 09:16:34;;;;;;;34.83;33.05;;;;;;;3.29;65.64;100860.03;5026131;28;20043;-75
2024/01/16 09:18:59;;;;;;;31.67;30.08;;;;;;;3.30;65.70;100858.19;5018261;28;20030;-76
2024/01/16 09:21:25;;;;;;;31.98;30.38;;;;;;;3.29;65.71;100867.22;5052383;28;20033;-76
2024/01/16 09:23:50;;;;;;;36.53;34.13;;;;;;;3.29;65.41;100867.22;5015663;28;20037;-75
2024/01/16 09:26:17;;;;;;;33.90;32.13;;;;;;;3.29;65.57;100870.72;5031540;28;20489;-75
2024/01/16 09:28:42;;;;;;;38.80;36.75;;;;;;;3.29;65.47;100876.06;5024369;28;20065;-76
2024/01/16 09:31:07;;;;;;;32.80;31.15;;;;;;;3.29;65.45;100870.72;5015873;28;20065;-74
2024/01/16 09:33:34;;;;;;;34.78;33.08;;;;;;;3.30;65.77;100859.03;5026823;28;20127;-78
2024/01/16 09:35:59;;;;;;;34.90;33.22;;;;;;;3.28;65.39;100861.06;5034319;28;20042;-75
2024/01/16 09:38:25;;;;;;;34.22;32.30;;;;;;;3.28;65.68;100863.75;5047694;28;20505;-76
2024/01/16 09:40:52;;;;;;;30.75;29.05;;;;;;;3.28;65.31;100865.59;5035602;28;20064;-76
2024/01/16 09:43:18;;;;;;;36.45;34.53;;;;;;;3.28;65.35;100863.75;5030071;28;20057;-75
2024/01/16 09:45:47;;;;;;;38.55;36.50;;;;;;;3.29;65.59;100864.56;5036936;28;20090;-77
2024/01/16 09:48:13;;;;;;;33.72;31.98;;;;;;;3.28;65.70;100866.41;5012832;28;20025;-75
2024/01/16 09:50:39;;;;;;;33.20;31.42;;;;;;;3.29;65.42;100865.38;5017371;28;20033;-76
2024/01/16 09:53:04;;;;;;;32.55;30.88;;;;;;;3.29;65.70;100857.38;5025375;28;20497;-76
2024/01/16 09:55:30;;;;;;;33.63;31.98;;;;;;;3.29;65.51;100851.22;5032407;28;20033;-74
2024/01/16 09:57:55;;;;;;;32.33;30.38;;;;;;;3.28;65.63;100861.06;5018797;28;20041;-75
2024/01/16 10:00:21;;;;;;;37.05;35.08;;;;;;;3.28;65.37;100858.41;5032522;28;20041;-74
2024/01/16 10:02:47;;;;;;;39.20;37.15;;;;;;;3.30;65.62;100852.84;5032472;28;20033;-79
2024/01/16 10:05:13;;;;;;;39.00;36.75;;;;;;;3.30;65.27;100855.53;5033465;28;20034;-74
2024/01/16 10:07:44;;;;;;;35.53;33.75;;;;;;;3.29;65.33;100857.38;5030892;28;20034;-74
2024/01/16 10:10:13;;;;;;;34.80;33.05;;;;;;;3.27;65.25;100866.59;5017280;28;20041;-77
2024/01/16 10:12:39;;;;;;;;;;;;;;;3.27;65.28;100859.41;5035240;28;20435;-75
2024/01/16 10:15:08;;;;;;;35.17;33.28;;;;;;;3.25;65.38;100850.75;5050025;28;20380;-74
2024/01/16 10:17:39;;;;;;;33.92;32.22;;;;;;;3.22;65.27;100846.63;5028564;28;20041;-76
2024/01/16 10:20:05;;;;;;;32.33;30.70;;;;;;;3.23;65.36;100836.81;5031612;28;20041;-74
2024/01/16 10:22:30;;;;;;;33.10;31.50;;;;;;;3.24;65.43;100838.44;5032258;28;20045;-74
2024/01/16 10:25:16;;;;;;;34.80;32.92;;;;;;;3.24;65.35;100835.78;5032837;28;20025;-74
2024/01/16 10:27:42;;;;;;;33.67;31.95;;;;;;;3.24;65.64;100830.44;5039424;28;20025;-77
2024/01/16 10:30:08;;;;;;;35.25;33.42;;;;;;;3.22;65.46;100822.59;5038919;28;20444;-74
2024/01/16 10:32:38;;;;;;;32.13;30.52;;;;;;;3.23;65.59;100826.13;5024608;28;20143;-75
2024/01/16 10:35:04;;;;;;;34.00;32.33;;;;;;;3.23;65.45;100826.13;5026440;28;20504;-77
2024/01/16 10:37:40;;;;;;;34.75;33.05;;;;;;;3.23;65.49;100836.81;5043038;28;20041;-74
2024/01/16 10:40:07;;;;;;;30.60;29.10;;;;;;;3.23;65.32;100840.28;5018713;28;20489;-74
2024/01/16 10:42:32;;;;;;;35.63;33.75;;;;;;;3.23;65.79;100839.47;5032627;28;20033;-75
2024/01/16 10:44:58;;;;;;;35.53;33.63;;;;;;;3.23;65.59;100839.47;5032149;28;20079;-75
2024/01/16 10:47:23;;;;;;;31.75;30.17;;;;;;;3.22;65.41;100821.78;5031448;28;20473;-75
2024/01/16 10:49:49;;;;;;;34.88;32.97;;;;;;;3.23;65.73;100810.91;5042066;28;20091;-74
2024/01/16 10:52:15;;;;;;;34.55;32.85;;;;;;;3.23;65.59;100808.25;5018216;28;20036;-77
2024/01/16 10:54:41;;;;;;;39.70;37.42;;;;;;;3.25;65.47;100805.38;5033828;28;20033;-76
2024/01/16 10:57:07;;;;;;;34.28;32.45;;;;;;;3.24;65.59;100804.56;5017495;28;20434;-76
2024/01/16 10:59:48;;;;;;;35.17;33.03;;;;;;;3.24;65.39;100801.06;5019867;28;20064;-75
2024/01/16 11:02:19;;;;;;;35.58;33.88;;;;;;;3.25;65.05;100813.38;5022758;28;20060;-74
2024/01/16 11:04:48;;;;;;;34.80;32.90;;;;;;;3.24;65.55;100811.75;5031255;28;20025;-75
2024/01/16 11:07:14;;;;;;;31.65;30.13;;;;;;;3.23;65.23;100805.59;5026204;28;20038;-75
2024/01/16 11:09:41;;;;;;;31.30;29.80;;;;;;;3.24;65.49;100793.88;5040624;28;20041;-74
2024/01/16 11:12:10;;;;;;;30.00;28.58;;;;;;;3.25;65.38;100798.22;5038087;28;20132;-75